Russell, Kansas
Current Conditions -  °F | °C
As of 2:07 PM on Thursday 18 Dec 2014 (Local Time) from KRSL Reporting Station
Overcast Overcast  
Wind Chill: 31°   Ceiling: 1100
Heat Index: 31°   Visibility: 8mi
Dew Point: 28°   Wind: 0mph
Humidity: 89%   Direction: NA
Pressure: 30.13"   Gusts: NA
Location:  38.9°N, 98.86°W
Report Text: KRSL 182007Z AUTO 00000KT 8SM BKN011 OVC031 M01/M02 A3013 RMK AO2 T10061022
Loading
Personal Weather Stations






























Interactive Weather Map New forecast layout! Learn more

10-Day Weather Forecast

Advertisements
Track Severe Weather on mobile